sensor_id;sensor_type;location;lat;lon;timestamp;pressure;altitude;pressure_sealevel;temperature;humidity
73842;BME280;62184;52.006;5.924;2023-02-28T00:01:21;102359.69;;;4.10;56.48
73842;BME280;62184;52.006;5.924;2023-02-28T00:03:50;102355.50;;;4.18;56.49
73842;BME280;62184;52.006;5.924;2023-02-28T00:06:17;102361.97;;;4.31;56.29
73842;BME280;62184;52.006;5.924;2023-02-28T00:08:44;102350.72;;;4.40;56.40
73842;BME280;62184;52.006;5.924;2023-02-28T00:11:12;102351.84;;;4.49;56.45
73842;BME280;62184;52.006;5.924;2023-02-28T00:13:43;102361.69;;;4.55;56.22
73842;BME280;62184;52.006;5.924;2023-02-28T00:16:14;102356.47;;;4.58;56.12
73842;BME280;62184;52.006;5.924;2023-02-28T00:18:43;102360.06;;;4.61;56.15
73842;BME280;62184;52.006;5.924;2023-02-28T00:21:12;102359.34;;;4.67;55.96
73842;BME280;62184;52.006;5.924;2023-02-28T00:23:38;102360.28;;;4.69;55.69
73842;BME280;62184;52.006;5.924;2023-02-28T00:26:05;102355.00;;;4.70;55.76
73842;BME280;62184;52.006;5.924;2023-02-28T00:28:32;102354.09;;;4.70;55.78
73842;BME280;62184;52.006;5.924;2023-02-28T00:30:58;102348.84;;;4.71;55.82
73842;BME280;62184;52.006;5.924;2023-02-28T00:33:25;102361.28;;;4.74;55.76
73842;BME280;62184;52.006;5.924;2023-02-28T00:35:52;102347.19;;;4.75;55.69
73842;BME280;62184;52.006;5.924;2023-02-28T00:38:29;102364.00;;;4.79;55.68
73842;BME280;62184;52.006;5.924;2023-02-28T00:40:55;102358.88;;;4.85;55.83
73842;BME280;62184;52.006;5.924;2023-02-28T00:43:21;102361.78;;;4.94;55.58
73842;BME280;62184;52.006;5.924;2023-02-28T00:45:48;102354.00;;;5.01;55.61
73842;BME280;62184;52.006;5.924;2023-02-28T00:48:14;102356.72;;;5.06;55.33
73842;BME280;62184;52.006;5.924;2023-02-28T00:50:41;102342.66;;;5.08;55.31
73842;BME280;62184;52.006;5.924;2023-02-28T00:53:07;102350.66;;;5.12;55.11
73842;BME280;62184;52.006;5.924;2023-02-28T00:55:36;102349.88;;;5.16;54.87
73842;BME280;62184;52.006;5.924;2023-02-28T00:58:03;102350.91;;;5.22;54.88
73842;BME280;62184;52.006;5.924;2023-02-28T01:00:29;102348.38;;;5.28;54.83
73842;BME280;62184;52.006;5.924;2023-02-28T01:02:56;102347.56;;;5.31;54.55
73842;BME280;62184;52.006;5.924;2023-02-28T01:05:23;102349.34;;;5.32;54.37
73842;BME280;62184;52.006;5.924;2023-02-28T01:07:49;102353.66;;;5.28;54.75
73842;BME280;62184;52.006;5.924;2023-02-28T01:10:16;102343.94;;;5.26;54.51
73842;BME280;62184;52.006;5.924;2023-02-28T01:12:45;102344.78;;;5.25;54.44
73842;BME280;62184;52.006;5.924;2023-02-28T01:15:12;102357.19;;;5.26;54.47
73842;BME280;62184;52.006;5.924;2023-02-28T01:17:38;102335.94;;;5.24;54.63
73842;BME280;62184;52.006;5.924;2023-02-28T01:20:06;102331.63;;;5.29;54.48
73842;BME280;62184;52.006;5.924;2023-02-28T01:22:34;102350.31;;;5.37;54.39
73842;BME280;62184;52.006;5.924;2023-02-28T01:25:01;102353.13;;;5.43;54.22
73842;BME280;62184;52.006;5.924;2023-02-28T01:27:27;102346.94;;;5.42;54.04
73842;BME280;62184;52.006;5.924;2023-02-28T01:29:56;102348.69;;;5.42;54.13
73842;BME280;62184;52.006;5.924;2023-02-28T01:32:22;102350.50;;;5.46;54.12
73842;BME280;62184;52.006;5.924;2023-02-28T01:34:49;102355.97;;;5.52;54.01
73842;BME280;62184;52.006;5.924;2023-02-28T01:37:15;102356.97;;;5.59;54.04
73842;BME280;62184;52.006;5.924;2023-02-28T01:39:42;102344.72;;;5.65;53.95
73842;BME280;62184;52.006;5.924;2023-02-28T01:42:08;102338.59;;;5.68;53.75
73842;BME280;62184;52.006;5.924;2023-02-28T01:44:58;102343.94;;;5.69;53.74
73842;BME280;62184;52.006;5.924;2023-02-28T01:47:35;102343.94;;;5.69;53.67
73842;BME280;62184;52.006;5.924;2023-02-28T01:50:11;102343.03;;;5.70;53.88
73842;BME280;62184;52.006;5.924;2023-02-28T01:52:41;102337.81;;;5.73;53.68
73842;BME280;62184;52.006;5.924;2023-02-28T01:55:10;102333.38;;;5.72;53.80
73842;BME280;62184;52.006;5.924;2023-02-28T01:57:41;102332.44;;;5.70;54.01
73842;BME280;62184;52.006;5.924;2023-02-28T02:00:16;102332.41;;;5.67;54.03
73842;BME280;62184;52.006;5.924;2023-02-28T02:02:48;102331.47;;;5.65;54.22
73842;BME280;62184;52.006;5.924;2023-02-28T02:05:19;102336.69;;;5.62;54.28
73842;BME280;62184;52.006;5.924;2023-02-28T02:07:49;102332.31;;;5.64;54.31
73842;BME280;62184;52.006;5.924;2023-02-28T02:10:20;102334.13;;;5.65;54.44
73842;BME280;62184;52.006;5.924;2023-02-28T02:13:05;102334.16;;;5.67;54.55
73842;BME280;62184;52.006;5.924;2023-02-28T02:15:45;102332.41;;;5.67;54.56
73842;BME280;62184;52.006;5.924;2023-02-28T02:18:27;102340.34;;;5.67;54.55
73842;BME280;62184;52.006;5.924;2023-02-28T02:21:29;102336.84;;;5.68;54.70
73842;BME280;62184;52.006;5.924;2023-02-28T02:27:26;102325.31;;;5.66;54.23
73842;BME280;62184;52.006;5.924;2023-02-28T02:30:34;102330.69;;;5.69;53.95
73842;BME280;62184;52.006;5.924;2023-02-28T02:33:49;102333.44;;;5.75;53.76
73842;BME280;62184;52.006;5.924;2023-02-28T02:36:44;102339.78;;;5.83;53.22
73842;BME280;62184;52.006;5.924;2023-02-28T02:39:17;102334.44;;;5.82;52.45
73842;BME280;62184;52.006;5.924;2023-02-28T02:41:53;102337.97;;;5.82;52.15
73842;BME280;62184;52.006;5.924;2023-02-28T02:44:24;102334.50;;;5.86;51.84
73842;BME280;62184;52.006;5.924;2023-02-28T02:46:58;102331.97;;;5.91;51.65
73842;BME280;62184;52.006;5.924;2023-02-28T02:49:33;102345.31;;;5.97;51.43
73842;BME280;62184;52.006;5.924;2023-02-28T02:52:07;102347.22;;;6.03;51.18
73842;BME280;62184;52.006;5.924;2023-02-28T02:54:40;102346.34;;;6.05;50.72
73842;BME280;62184;52.006;5.924;2023-02-28T02:57:14;102339.38;;;6.10;50.52
73842;BME280;62184;52.006;5.924;2023-02-28T02:59:49;102337.63;;;6.12;50.30
73842;BME280;62184;52.006;5.924;2023-02-28T03:02:21;102347.44;;;6.16;50.16
73842;BME280;62184;52.006;5.924;2023-02-28T03:04:53;102348.38;;;6.20;50.00
73842;BME280;62184;52.006;5.924;2023-02-28T03:07:25;102347.50;;;6.21;49.93
73842;BME280;62184;52.006;5.924;2023-02-28T03:09:53;102357.22;;;6.20;49.54
73842;BME280;62184;52.006;5.924;2023-02-28T03:12:22;102356.31;;;6.20;49.35
73842;BME280;62184;52.006;5.924;2023-02-28T03:15:08;102348.38;;;6.20;49.31
73842;BME280;62184;52.006;5.924;2023-02-28T03:17:57;102354.56;;;6.20;48.85
73842;BME280;62184;52.006;5.924;2023-02-28T03:20:43;102354.56;;;6.19;48.57
73842;BME280;62184;52.006;5.924;2023-02-28T03:23:29;102353.66;;;6.18;48.44
73842;BME280;62184;52.006;5.924;2023-02-28T03:26:07;102354.47;;;6.14;48.59
73842;BME280;62184;52.006;5.924;2023-02-28T03:28:48;102350.03;;;6.13;48.57
73842;BME280;62184;52.006;5.924;2023-02-28T03:31:27;102347.44;;;6.16;48.42
73842;BME280;62184;52.006;5.924;2023-02-28T03:34:01;102353.63;;;6.17;48.16
73842;BME280;62184;52.006;5.924;2023-02-28T03:36:39;102357.22;;;6.20;48.33
73842;BME280;62184;52.006;5.924;2023-02-28T03:39:14;102359.00;;;6.21;48.40
73842;BME280;62184;52.006;5.924;2023-02-28T03:41:49;102347.56;;;6.24;48.15
73842;BME280;62184;52.006;5.924;2023-02-28T03:44:24;102351.97;;;6.23;48.19
73842;BME280;62184;52.006;5.924;2023-02-28T03:47:02;102357.31;;;6.25;48.25
73842;BME280;62184;52.006;5.924;2023-02-28T03:49:36;102352.88;;;6.24;48.11
73842;BME280;62184;52.006;5.924;2023-02-28T03:52:11;102347.44;;;6.16;47.97
73842;BME280;62184;52.006;5.924;2023-02-28T03:54:43;102355.28;;;6.10;47.56
73842;BME280;62184;52.006;5.924;2023-02-28T03:57:20;102347.22;;;6.04;47.40
73842;BME280;62184;52.006;5.924;2023-02-28T03:59:56;102341.91;;;6.04;46.91
73842;BME280;62184;52.006;5.924;2023-02-28T04:02:27;102334.91;;;6.08;47.01
73842;BME280;62184;52.006;5.924;2023-02-28T04:04:54;102335.06;;;6.17;47.04
73842;BME280;62184;52.006;5.924;2023-02-28T04:07:23;102334.31;;;6.24;46.97
73842;BME280;62184;52.006;5.924;2023-02-28T04:09:49;102327.38;;;6.34;46.88
73842;BME280;62184;52.006;5.924;2023-02-28T04:12:16;102336.28;;;6.36;46.57
73842;BME280;62184;52.006;5.924;2023-02-28T04:14:42;102334.44;;;6.32;46.71
73842;BME280;62184;52.006;5.924;2023-02-28T04:17:09;102337.03;;;6.30;46.89
73842;BME280;62184;52.006;5.924;2023-02-28T04:19:35;102337.91;;;6.28;47.01
73842;BME280;62184;52.006;5.924;2023-02-28T04:22:02;102336.03;;;6.22;47.27
73842;BME280;62184;52.006;5.924;2023-02-28T04:24:31;102343.06;;;6.20;47.28
73842;BME280;62184;52.006;5.924;2023-02-28T04:26:57;102338.59;;;6.16;47.36
73842;BME280;62184;52.006;5.924;2023-02-28T04:29:26;102331.41;;;6.12;47.63
73842;BME280;62184;52.006;5.924;2023-02-28T04:31:54;102339.34;;;6.09;47.64
73842;BME280;62184;52.006;5.924;2023-02-28T04:34:21;102333.13;;;6.07;47.90
73842;BME280;62184;52.006;5.924;2023-02-28T04:36:48;102332.19;;;6.05;48.03
73842;BME280;62184;52.006;5.924;2023-02-28T04:39:15;102331.28;;;6.03;48.01
73842;BME280;62184;52.006;5.924;2023-02-28T04:41:44;102331.16;;;5.97;48.28
73842;BME280;62184;52.006;5.924;2023-02-28T04:44:10;102338.94;;;5.88;48.38
73842;BME280;62184;52.006;5.924;2023-02-28T04:46:37;102337.97;;;5.82;48.80
73842;BME280;62184;52.006;5.924;2023-02-28T04:49:04;102333.53;;;5.81;48.94
73842;BME280;62184;52.006;5.924;2023-02-28T04:51:30;102336.28;;;5.86;49.03
73842;BME280;62184;52.006;5.924;2023-02-28T04:53:57;102334.56;;;5.90;48.88
73842;BME280;62184;52.006;5.924;2023-02-28T04:56:23;102332.84;;;5.92;49.07
73842;BME280;62184;52.006;5.924;2023-02-28T04:58:52;102331.88;;;5.88;49.24
73842;BME280;62184;52.006;5.924;2023-02-28T05:01:21;102343.38;;;5.89;49.15
73842;BME280;62184;52.006;5.924;2023-02-28T05:03:51;102341.63;;;5.89;49.21
73842;BME280;62184;52.006;5.924;2023-02-28T05:06:20;102342.50;;;5.88;49.28
73842;BME280;62184;52.006;5.924;2023-02-28T05:08:47;102341.59;;;5.88;49.32
73842;BME280;62184;52.006;5.924;2023-02-28T05:11:17;102344.38;;;5.94;49.36
73842;BME280;62184;52.006;5.924;2023-02-28T05:13:45;102340.84;;;5.93;49.16
73842;BME280;62184;52.006;5.924;2023-02-28T05:16:15;102345.19;;;5.90;49.22
73842;BME280;62184;52.006;5.924;2023-02-28T05:18:43;102336.13;;;5.78;49.19
73842;BME280;62184;52.006;5.924;2023-02-28T05:21:23;102332.56;;;5.76;49.54
73842;BME280;62184;52.006;5.924;2023-02-28T05:23:52;102329.09;;;5.80;49.62
73842;BME280;62184;52.006;5.924;2023-02-28T05:26:19;102338.06;;;5.85;49.63
73842;BME280;62184;52.006;5.924;2023-02-28T05:28:45;102338.94;;;5.88;49.55
73842;BME280;62184;52.006;5.924;2023-02-28T05:31:15;102337.97;;;5.82;49.45
73842;BME280;62184;52.006;5.924;2023-02-28T05:33:41;102343.28;;;5.82;49.56
73842;BME280;62184;52.006;5.924;2023-02-28T05:36:08;102346.78;;;5.81;49.65
73842;BME280;62184;52.006;5.924;2023-02-28T05:38:35;102347.50;;;5.73;49.81
73842;BME280;62184;52.006;5.924;2023-02-28T05:41:05;102337.75;;;5.70;49.97
73842;BME280;62184;52.006;5.924;2023-02-28T05:43:32;102351.00;;;5.70;50.15
73842;BME280;62184;52.006;5.924;2023-02-28T05:46:02;102356.25;;;5.67;50.15
73842;BME280;62184;52.006;5.924;2023-02-28T05:48:32;102350.09;;;5.68;50.25
73842;BME280;62184;52.006;5.924;2023-02-28T05:50:58;102344.91;;;5.74;50.42
73842;BME280;62184;52.006;5.924;2023-02-28T05:53:25;102340.63;;;5.82;50.28
73842;BME280;62184;52.006;5.924;2023-02-28T05:55:52;102343.47;;;5.92;50.22
73842;BME280;62184;52.006;5.924;2023-02-28T05:58:19;102364.69;;;5.95;49.74
73842;BME280;62184;52.006;5.924;2023-02-28T06:00:45;102352.34;;;5.94;50.03
73842;BME280;62184;52.006;5.924;2023-02-28T06:03:12;102346.25;;;5.99;50.06
73842;BME280;62184;52.006;5.924;2023-02-28T06:05:41;102345.47;;;6.06;49.80
73842;BME280;62184;52.006;5.924;2023-02-28T06:08:07;102340.28;;;6.12;49.57
73842;BME280;62184;52.006;5.924;2023-02-28T06:10:33;102340.41;;;6.20;49.52
73842;BME280;62184;52.006;5.924;2023-02-28T06:13:00;102366.06;;;6.21;49.14
73842;BME280;62184;52.006;5.924;2023-02-28T06:15:27;102370.25;;;6.07;49.14
73842;BME280;62184;52.006;5.924;2023-02-28T06:17:53;102362.91;;;5.92;48.95
73842;BME280;62184;52.006;5.924;2023-02-28T06:20:20;102354.09;;;5.95;49.08
73842;BME280;62184;52.006;5.924;2023-02-28T06:22:49;102362.22;;;6.04;49.14
73842;BME280;62184;52.006;5.924;2023-02-28T06:25:15;102359.75;;;6.13;49.05
73842;BME280;62184;52.006;5.924;2023-02-28T06:27:43;102363.41;;;6.21;48.74
73842;BME280;62184;52.006;5.924;2023-02-28T06:30:10;102361.81;;;6.31;48.41
73842;BME280;62184;52.006;5.924;2023-02-28T06:32:38;102371.66;;;6.36;48.17
73842;BME280;62184;52.006;5.924;2023-02-28T06:35:05;102378.72;;;6.37;47.99
73842;BME280;62184;52.006;5.924;2023-02-28T06:37:32;102382.28;;;6.36;48.02
73842;BME280;62184;52.006;5.924;2023-02-28T06:40:01;102375.19;;;6.37;47.85
73842;BME280;62184;52.006;5.924;2023-02-28T06:42:27;102377.88;;;6.38;47.86
73842;BME280;62184;52.006;5.924;2023-02-28T06:44:54;102375.25;;;6.40;47.49
73842;BME280;62184;52.006;5.924;2023-02-28T06:47:21;102390.25;;;6.36;46.96
73842;BME280;62184;52.006;5.924;2023-02-28T06:49:48;102384.78;;;6.29;46.81
73842;BME280;62184;52.006;5.924;2023-02-28T06:52:15;102389.19;;;6.27;46.37
73842;BME280;62184;52.006;5.924;2023-02-28T06:54:42;102398.03;;;6.27;46.18
73842;BME280;62184;52.006;5.924;2023-02-28T06:57:11;102397.03;;;6.22;45.93
73842;BME280;62184;52.006;5.924;2023-02-28T06:59:37;102391.75;;;6.22;45.80
73842;BME280;62184;52.006;5.924;2023-02-28T07:02:04;102391.75;;;6.22;45.79
73842;BME280;62184;52.006;5.924;2023-02-28T07:04:30;102394.34;;;6.20;45.73
73842;BME280;62184;52.006;5.924;2023-02-28T07:06:56;102401.47;;;6.21;45.66
73842;BME280;62184;52.006;5.924;2023-02-28T07:09:23;102399.75;;;6.25;45.59
73842;BME280;62184;52.006;5.924;2023-02-28T07:11:50;102406.03;;;6.30;45.46
73842;BME280;62184;52.006;5.924;2023-02-28T07:14:19;102406.13;;;6.35;45.21
73842;BME280;62184;52.006;5.924;2023-02-28T07:16:45;102404.41;;;6.38;45.09
73842;BME280;62184;52.006;5.924;2023-02-28T07:19:11;102404.50;;;6.43;44.82
73842;BME280;62184;52.006;5.924;2023-02-28T07:21:38;102393.06;;;6.47;44.68
73842;BME280;62184;52.006;5.924;2023-02-28T07:24:05;102397.53;;;6.49;44.32
73842;BME280;62184;52.006;5.924;2023-02-28T07:26:32;102398.38;;;6.47;43.87
73842;BME280;62184;52.006;5.924;2023-02-28T07:28:58;102402.75;;;6.45;44.10
73842;BME280;62184;52.006;5.924;2023-02-28T07:31:27;102408.91;;;6.42;44.14
73842;BME280;62184;52.006;5.924;2023-02-28T07:33:54;102416.88;;;6.42;44.13
73842;BME280;62184;52.006;5.924;2023-02-28T07:36:20;102405.38;;;6.42;44.26
73842;BME280;62184;52.006;5.924;2023-02-28T07:38:48;102414.16;;;6.39;44.07
73842;BME280;62184;52.006;5.924;2023-02-28T07:41:15;102416.78;;;6.36;44.11
73842;BME280;62184;52.006;5.924;2023-02-28T07:43:42;102411.50;;;6.39;44.03
73842;BME280;62184;52.006;5.924;2023-02-28T07:46:11;102408.88;;;6.41;43.69
73842;BME280;62184;52.006;5.924;2023-02-28T07:48:41;102408.03;;;6.42;43.45
73842;BME280;62184;52.006;5.924;2023-02-28T07:51:08;102415.09;;;6.41;43.50
73842;BME280;62184;52.006;5.924;2023-02-28T07:53:35;102408.00;;;6.40;43.53
73842;BME280;62184;52.006;5.924;2023-02-28T07:56:02;102416.00;;;6.45;43.80
73842;BME280;62184;52.006;5.924;2023-02-28T07:58:30;102416.16;;;6.51;44.08
73842;BME280;62184;52.006;5.924;2023-02-28T08:00:57;102414.41;;;6.54;43.86
73842;BME280;62184;52.006;5.924;2023-02-28T08:03:31;102409.25;;;6.63;44.00
73842;BME280;62184;52.006;5.924;2023-02-28T08:06:00;102412.88;;;6.67;43.63
73842;BME280;62184;52.006;5.924;2023-02-28T08:08:26;102419.97;;;6.68;42.97
73842;BME280;62184;52.006;5.924;2023-02-28T08:10:53;102419.06;;;6.68;42.73
73842;BME280;62184;52.006;5.924;2023-02-28T08:13:19;102432.28;;;6.65;42.66
73842;BME280;62184;52.006;5.924;2023-02-28T08:15:45;102433.13;;;6.62;42.27
73842;BME280;62184;52.006;5.924;2023-02-28T08:18:12;102425.19;;;6.63;42.29
73842;BME280;62184;52.006;5.924;2023-02-28T08:20:38;102427.97;;;6.70;42.20
73842;BME280;62184;52.006;5.924;2023-02-28T08:23:07;102425.41;;;6.76;41.45
73842;BME280;62184;52.006;5.924;2023-02-28T08:25:34;102421.91;;;6.78;40.56
73842;BME280;62184;52.006;5.924;2023-02-28T08:28:00;102425.44;;;6.77;40.08
73842;BME280;62184;52.006;5.924;2023-02-28T08:30:26;102423.69;;;6.78;39.58
73842;BME280;62184;52.006;5.924;2023-02-28T08:32:53;102417.59;;;6.85;39.91
73842;BME280;62184;52.006;5.924;2023-02-28T08:35:19;102421.31;;;6.97;39.33
73842;BME280;62184;52.006;5.924;2023-02-28T08:37:47;102418.78;;;7.07;38.68
73842;BME280;62184;52.006;5.924;2023-02-28T08:40:17;102420.59;;;7.08;38.51
73842;BME280;62184;52.006;5.924;2023-02-28T08:42:43;102425.97;;;7.11;38.60
73842;BME280;62184;52.006;5.924;2023-02-28T08:45:10;102423.34;;;7.15;38.02
73842;BME280;62184;52.006;5.924;2023-02-28T08:47:37;102428.69;;;7.17;38.19
73842;BME280;62184;52.006;5.924;2023-02-28T08:50:05;102425.19;;;7.19;37.74
73842;BME280;62184;52.006;5.924;2023-02-28T08:52:32;102424.34;;;7.23;37.52
73842;BME280;62184;52.006;5.924;2023-02-28T08:54:58;102416.47;;;7.29;37.63
73842;BME280;62184;52.006;5.924;2023-02-28T08:57:27;102421.94;;;7.38;37.53
73842;BME280;62184;52.006;5.924;2023-02-28T08:59:54;102412.25;;;7.42;37.09
73842;BME280;62184;52.006;5.924;2023-02-28T09:02:20;102417.56;;;7.42;36.99
73842;BME280;62184;52.006;5.924;2023-02-28T09:04:46;102409.63;;;7.47;36.82
73842;BME280;62184;52.006;5.924;2023-02-28T09:07:13;102413.28;;;7.52;36.55
73842;BME280;62184;52.006;5.924;2023-02-28T09:09:39;102415.13;;;7.59;36.08
73842;BME280;62184;52.006;5.924;2023-02-28T09:12:06;102410.81;;;7.68;36.13
73842;BME280;62184;52.006;5.924;2023-02-28T09:14:35;102417.97;;;7.74;35.87
73842;BME280;62184;52.006;5.924;2023-02-28T09:17:02;102409.00;;;7.66;35.55
73842;BME280;62184;52.006;5.924;2023-02-28T09:19:28;102420.44;;;7.59;35.47
73842;BME280;62184;52.006;5.924;2023-02-28T09:21:55;102418.66;;;7.58;35.60
73842;BME280;62184;52.006;5.924;2023-02-28T09:24:21;102422.22;;;7.60;35.67
73842;BME280;62184;52.006;5.924;2023-02-28T09:26:47;102418.84;;;7.73;35.44
73842;BME280;62184;52.006;5.924;2023-02-28T09:29:14;102419.94;;;7.90;34.91
73842;BME280;62184;52.006;5.924;2023-02-28T09:31:43;102427.19;;;8.06;34.72
73842;BME280;62184;52.006;5.924;2023-02-28T09:34:09;102424.66;;;8.16;34.08
73842;BME280;62184;52.006;5.924;2023-02-28T09:36:36;102421.16;;;8.20;34.27
73842;BME280;62184;52.006;5.924;2023-02-28T09:39:02;102426.59;;;8.32;33.71
73842;BME280;62184;52.006;5.924;2023-02-28T09:41:36;102415.00;;;8.27;33.70
73842;BME280;62184;52.006;5.924;2023-02-28T09:44:04;102414.94;;;8.22;33.94
73842;BME280;62184;52.006;5.924;2023-02-28T09:46:44;102415.09;;;8.34;33.71
73842;BME280;62184;52.006;5.924;2023-02-28T09:49:16;102414.22;;;8.37;33.13
73842;BME280;62184;52.006;5.924;2023-02-28T09:51:51;102413.41;;;8.47;33.16
73842;BME280;62184;52.006;5.924;2023-02-28T09:54:24;102409.94;;;8.57;33.25
73842;BME280;62184;52.006;5.924;2023-02-28T09:56:58;102409.06;;;8.58;33.31
73842;BME280;62184;52.006;5.924;2023-02-28T09:59:35;102418.81;;;8.55;33.41
73842;BME280;62184;52.006;5.924;2023-02-28T10:05:23;102408.34;;;8.77;32.56
73842;BME280;62184;52.006;5.924;2023-02-28T10:08:00;102408.34;;;8.80;33.15
73842;BME280;62184;52.006;5.924;2023-02-28T10:10:36;102407.63;;;9.00;33.15
73842;BME280;62184;52.006;5.924;2023-02-28T10:13:17;102400.66;;;9.18;32.84
73842;BME280;62184;52.006;5.924;2023-02-28T10:15:52;102402.56;;;9.36;32.48
73842;BME280;62184;52.006;5.924;2023-02-28T10:18:31;102409.63;;;9.31;32.68
73842;BME280;62184;52.006;5.924;2023-02-28T10:21:06;102406.91;;;9.20;32.80
73842;BME280;62184;52.006;5.924;2023-02-28T10:23:40;102403.28;;;9.12;32.39
73842;BME280;62184;52.006;5.924;2023-02-28T10:26:12;102400.59;;;9.14;32.27
73842;BME280;62184;52.006;5.924;2023-02-28T10:28:41;102399.81;;;9.25;32.60
73842;BME280;62184;52.006;5.924;2023-02-28T10:31:11;102395.47;;;9.47;32.36
73842;BME280;62184;52.006;5.924;2023-02-28T10:33:46;102399.06;;;9.57;32.13
73842;BME280;62184;52.006;5.924;2023-02-28T10:36:15;102396.44;;;9.60;32.25
73842;BME280;62184;52.006;5.924;2023-02-28T10:38:45;102382.28;;;9.82;31.99
73842;BME280;62184;52.006;5.924;2023-02-28T10:41:14;102396.56;;;10.13;31.22
73842;BME280;62184;52.006;5.924;2023-02-28T10:43:43;102391.28;;;10.21;31.11
73842;BME280;62184;52.006;5.924;2023-02-28T10:46:14;102386.78;;;10.08;30.99
73842;BME280;62184;52.006;5.924;2023-02-28T10:48:50;102384.06;;;9.91;31.56
73842;BME280;62184;52.006;5.924;2023-02-28T10:51:34;102377.81;;;9.83;32.21
73842;BME280;62184;52.006;5.924;2023-02-28T10:54:04;102381.38;;;9.71;30.93
73842;BME280;62184;52.006;5.924;2023-02-28T10:56:31;102385.78;;;9.66;31.27
73842;BME280;62184;52.006;5.924;2023-02-28T10:59:00;102374.22;;;9.69;31.74
73842;BME280;62184;52.006;5.924;2023-02-28T11:01:36;102382.25;;;9.76;31.79
73842;BME280;62184;52.006;5.924;2023-02-28T11:04:16;102377.81;;;9.71;31.58
73842;BME280;62184;52.006;5.924;2023-02-28T11:06:45;102376.03;;;9.76;32.08
73842;BME280;62184;52.006;5.924;2023-02-28T11:09:19;102390.34;;;10.08;31.56
73842;BME280;62184;52.006;5.924;2023-02-28T11:11:51;102375.25;;;10.37;31.48
73842;BME280;62184;52.006;5.924;2023-02-28T11:14:20;102370.81;;;10.53;31.12
73842;BME280;62184;52.006;5.924;2023-02-28T11:16:50;102377.03;;;10.64;31.12
73842;BME280;62184;52.006;5.924;2023-02-28T11:19:25;102373.50;;;10.38;30.72
73842;BME280;62184;52.006;5.924;2023-02-28T11:21:56;102366.34;;;10.28;31.49
73842;BME280;62184;52.006;5.924;2023-02-28T11:24:28;102366.34;;;10.34;31.30
73842;BME280;62184;52.006;5.924;2023-02-28T11:26:58;102363.66;;;10.40;30.95
73842;BME280;62184;52.006;5.924;2023-02-28T11:29:26;102364.56;;;10.50;31.12
73842;BME280;62184;52.006;5.924;2023-02-28T11:32:11;102362.78;;;10.64;30.81
73842;BME280;62184;52.006;5.924;2023-02-28T11:34:45;102359.22;;;10.68;30.67
73842;BME280;62184;52.006;5.924;2023-02-28T11:37:15;102354.78;;;10.71;30.28
73842;BME280;62184;52.006;5.924;2023-02-28T11:39:45;102348.53;;;10.69;30.48
73842;BME280;62184;52.006;5.924;2023-02-28T11:42:27;102366.38;;;10.63;30.30
73842;BME280;62184;52.006;5.924;2023-02-28T11:45:18;102356.56;;;10.50;30.45
73842;BME280;62184;52.006;5.924;2023-02-28T11:47:59;102348.53;;;10.53;30.75
73842;BME280;62184;52.006;5.924;2023-02-28T11:50:47;102350.31;;;10.55;31.01
73842;BME280;62184;52.006;5.924;2023-02-28T11:56:31;102342.25;;;11.02;30.47
73842;BME280;62184;52.006;5.924;2023-02-28T11:59:12;102343.16;;;11.03;29.37
73842;BME280;62184;52.006;5.924;2023-02-28T12:02:15;102343.19;;;10.82;30.04
73842;BME280;62184;52.006;5.924;2023-02-28T12:04:54;102340.50;;;10.74;29.87
73842;BME280;62184;52.006;5.924;2023-02-28T12:07:49;102335.19;;;10.78;30.27
73842;BME280;62184;52.006;5.924;2023-02-28T12:10:26;102326.28;;;10.80;30.19
73842;BME280;62184;52.006;5.924;2023-02-28T12:13:04;102332.47;;;11.00;29.66
73842;BME280;62184;52.006;5.924;2023-02-28T12:16:03;102323.47;;;11.28;29.52
73842;BME280;62184;52.006;5.924;2023-02-28T12:21:51;102316.97;;;11.79;29.04
73842;BME280;62184;52.006;5.924;2023-02-28T12:24:42;102317.78;;;11.86;28.25
73842;BME280;62184;52.006;5.924;2023-02-28T12:27:19;102316.03;;;11.80;28.34
73842;BME280;62184;52.006;5.924;2023-02-28T12:29:51;102320.56;;;11.71;28.36
73842;BME280;62184;52.006;5.924;2023-02-28T12:32:27;102305.31;;;11.80;28.61
73842;BME280;62184;52.006;5.924;2023-02-28T12:35:01;102310.66;;;11.86;28.51
73842;BME280;62184;52.006;5.924;2023-02-28T12:37:34;102305.38;;;11.74;28.47
73842;BME280;62184;52.006;5.924;2023-02-28T12:40:11;102304.47;;;11.78;28.67
73842;BME280;62184;52.006;5.924;2023-02-28T12:42:43;102294.53;;;11.92;28.17
73842;BME280;62184;52.006;5.924;2023-02-28T12:45:18;102287.28;;;12.08;27.85
73842;BME280;62184;52.006;5.924;2023-02-28T12:47:49;102290.91;;;12.04;27.81
73842;BME280;62184;52.006;5.924;2023-02-28T12:50:21;102284.84;;;11.73;27.74
73842;BME280;62184;52.006;5.924;2023-02-28T12:52:54;102291.25;;;11.48;27.35
73842;BME280;62184;52.006;5.924;2023-02-28T12:55:35;102280.66;;;11.30;28.53
73842;BME280;62184;52.006;5.924;2023-02-28T12:58:13;102281.47;;;11.45;29.10
73842;BME280;62184;52.006;5.924;2023-02-28T13:01:04;102277.81;;;11.60;28.06
73842;BME280;62184;52.006;5.924;2023-02-28T13:07:29;102276.03;;;11.62;27.82
73842;BME280;62184;52.006;5.924;2023-02-28T13:10:10;102277.00;;;11.46;27.46
73842;BME280;62184;52.006;5.924;2023-02-28T13:12:47;102261.84;;;11.42;27.55
73842;BME280;62184;52.006;5.924;2023-02-28T13:15:18;102264.47;;;11.52;27.43
73842;BME280;62184;52.006;5.924;2023-02-28T13:17:49;102261.66;;;11.74;27.48
73842;BME280;62184;52.006;5.924;2023-02-28T13:20:19;102259.75;;;11.91;27.17
73842;BME280;62184;52.006;5.924;2023-02-28T13:22:49;102255.28;;;11.91;27.41
73842;BME280;62184;52.006;5.924;2023-02-28T13:25:50;102265.22;;;11.77;27.49
73842;BME280;62184;52.006;5.924;2023-02-28T13:35:14;102253.88;;;11.36;27.46
73842;BME280;62184;52.006;5.924;2023-02-28T13:38:13;102259.16;;;11.46;27.44
73842;BME280;62184;52.006;5.924;2023-02-28T13:40:43;102248.38;;;11.57;27.24
73842;BME280;62184;52.006;5.924;2023-02-28T13:43:09;102251.88;;;11.65;27.56